sensor_id;sensor_type;location;lat;lon;timestamp;temperature;humidity
429;DHT22;201;48.758;9.290;2023-11-21T00:00:09;7.60;16.00
429;DHT22;201;48.758;9.290;2023-11-21T00:02:37;7.60;16.20
429;DHT22;201;48.758;9.290;2023-11-21T00:05:06;7.50;16.20
429;DHT22;201;48.758;9.290;2023-11-21T00:07:33;7.50;16.30
429;DHT22;201;48.758;9.290;2023-11-21T00:09:59;7.50;16.40
429;DHT22;201;48.758;9.290;2023-11-21T00:12:24;7.40;16.40
429;DHT22;201;48.758;9.290;2023-11-21T00:14:50;7.40;16.40
429;DHT22;201;48.758;9.290;2023-11-21T00:17:15;7.50;17.20
429;DHT22;201;48.758;9.290;2023-11-21T00:19:41;7.40;16.70
429;DHT22;201;48.758;9.290;2023-11-21T00:22:08;7.50;16.90
429;DHT22;201;48.758;9.290;2023-11-21T00:24:34;7.50;17.10
429;DHT22;201;48.758;9.290;2023-11-21T00:27:00;7.50;17.10
429;DHT22;201;48.758;9.290;2023-11-21T00:29:25;7.50;17.10
429;DHT22;201;48.758;9.290;2023-11-21T00:31:51;7.50;17.10
429;DHT22;201;48.758;9.290;2023-11-21T00:34:16;7.50;17.10
429;DHT22;201;48.758;9.290;2023-11-21T00:36:42;7.50;17.10
429;DHT22;201;48.758;9.290;2023-11-21T00:39:07;7.50;17.10
429;DHT22;201;48.758;9.290;2023-11-21T00:41:33;7.50;17.70
429;DHT22;201;48.758;9.290;2023-11-21T00:44:00;7.40;17.00
429;DHT22;201;48.758;9.290;2023-11-21T00:46:26;7.50;17.10
429;DHT22;201;48.758;9.290;2023-11-21T00:48:55;7.50;17.10
429;DHT22;201;48.758;9.290;2023-11-21T00:51:21;7.50;17.10
429;DHT22;201;48.758;9.290;2023-11-21T00:53:47;7.50;17.10
429;DHT22;201;48.758;9.290;2023-11-21T00:56:13;7.50;17.10
429;DHT22;201;48.758;9.290;2023-11-21T00:58:39;7.50;17.10
429;DHT22;201;48.758;9.290;2023-11-21T01:01:08;7.60;17.20
429;DHT22;201;48.758;9.290;2023-11-21T01:03:33;7.60;17.20
429;DHT22;201;48.758;9.290;2023-11-21T01:05:58;7.70;17.30
429;DHT22;201;48.758;9.290;2023-11-21T01:08:24;7.70;17.30
429;DHT22;201;48.758;9.290;2023-11-21T01:10:50;7.70;16.90
429;DHT22;201;48.758;9.290;2023-11-21T01:13:15;7.70;16.40
429;DHT22;201;48.758;9.290;2023-11-21T01:15:41;7.70;16.00
429;DHT22;201;48.758;9.290;2023-11-21T01:18:07;7.70;15.70
429;DHT22;201;48.758;9.290;2023-11-21T01:20:34;7.70;15.70
429;DHT22;201;48.758;9.290;2023-11-21T01:22:59;7.70;15.60
429;DHT22;201;48.758;9.290;2023-11-21T01:25:25;7.70;15.30
429;DHT22;201;48.758;9.290;2023-11-21T01:27:51;7.70;15.30
429;DHT22;201;48.758;9.290;2023-11-21T01:30:17;7.70;15.40
429;DHT22;201;48.758;9.290;2023-11-21T01:32:42;7.70;15.30
429;DHT22;201;48.758;9.290;2023-11-21T01:35:09;7.70;15.40
429;DHT22;201;48.758;9.290;2023-11-21T01:37:36;7.70;15.30
429;DHT22;201;48.758;9.290;2023-11-21T01:40:02;7.70;15.10
429;DHT22;201;48.758;9.290;2023-11-21T01:42:30;7.70;14.80
429;DHT22;201;48.758;9.290;2023-11-21T01:44:56;7.70;14.80
429;DHT22;201;48.758;9.290;2023-11-21T01:47:21;7.70;14.80
429;DHT22;201;48.758;9.290;2023-11-21T01:49:47;7.70;14.50
429;DHT22;201;48.758;9.290;2023-11-21T01:52:13;7.70;14.50
429;DHT22;201;48.758;9.290;2023-11-21T01:54:40;7.60;14.40
429;DHT22;201;48.758;9.290;2023-11-21T01:57:06;7.70;14.70
429;DHT22;201;48.758;9.290;2023-11-21T01:59:37;7.70;14.80
429;DHT22;201;48.758;9.290;2023-11-21T02:02:04;7.70;14.60
429;DHT22;201;48.758;9.290;2023-11-21T02:04:31;7.80;14.60
429;DHT22;201;48.758;9.290;2023-11-21T02:06:57;7.70;14.30
429;DHT22;201;48.758;9.290;2023-11-21T02:09:30;7.80;14.50
429;DHT22;201;48.758;9.290;2023-11-21T02:11:57;7.80;14.50
429;DHT22;201;48.758;9.290;2023-11-21T02:14:27;7.80;14.30
429;DHT22;201;48.758;9.290;2023-11-21T02:16:54;7.90;14.10
429;DHT22;201;48.758;9.290;2023-11-21T02:19:21;7.90;13.90
429;DHT22;201;48.758;9.290;2023-11-21T02:21:56;8.00;13.90
429;DHT22;201;48.758;9.290;2023-11-21T02:24:24;8.00;13.50
429;DHT22;201;48.758;9.290;2023-11-21T02:26:50;7.90;13.20
429;DHT22;201;48.758;9.290;2023-11-21T02:29:20;7.90;12.70
429;DHT22;201;48.758;9.290;2023-11-21T02:31:51;7.80;12.60
429;DHT22;201;48.758;9.290;2023-11-21T02:34:18;7.80;12.50
429;DHT22;201;48.758;9.290;2023-11-21T02:36:44;7.80;12.50
429;DHT22;201;48.758;9.290;2023-11-21T02:39:10;7.90;12.50
429;DHT22;201;48.758;9.290;2023-11-21T02:41:37;7.80;12.20
429;DHT22;201;48.758;9.290;2023-11-21T02:44:03;7.80;12.10
429;DHT22;201;48.758;9.290;2023-11-21T02:46:31;7.90;11.90
429;DHT22;201;48.758;9.290;2023-11-21T02:48:59;7.80;11.90
429;DHT22;201;48.758;9.290;2023-11-21T02:51:25;7.80;11.50
429;DHT22;201;48.758;9.290;2023-11-21T02:53:50;7.80;11.50
429;DHT22;201;48.758;9.290;2023-11-21T02:56:16;7.80;11.40
429;DHT22;201;48.758;9.290;2023-11-21T02:58:42;7.80;11.20
429;DHT22;201;48.758;9.290;2023-11-21T03:01:09;7.80;11.20
429;DHT22;201;48.758;9.290;2023-11-21T03:03:36;7.80;11.30
429;DHT22;201;48.758;9.290;2023-11-21T03:06:06;7.70;11.00
429;DHT22;201;48.758;9.290;2023-11-21T03:08:31;7.80;11.30
429;DHT22;201;48.758;9.290;2023-11-21T03:10:57;7.80;11.40
429;DHT22;201;48.758;9.290;2023-11-21T03:13:23;7.90;11.50
429;DHT22;201;48.758;9.290;2023-11-21T03:15:48;8.00;11.60
429;DHT22;201;48.758;9.290;2023-11-21T03:18:14;8.00;11.80
429;DHT22;201;48.758;9.290;2023-11-21T03:20:39;8.00;11.30
429;DHT22;201;48.758;9.290;2023-11-21T03:23:05;8.00;10.90
429;DHT22;201;48.758;9.290;2023-11-21T03:25:30;8.00;10.40
429;DHT22;201;48.758;9.290;2023-11-21T03:27:56;7.90;9.90
429;DHT22;201;48.758;9.290;2023-11-21T03:30:22;7.90;9.70
429;DHT22;201;48.758;9.290;2023-11-21T03:32:47;7.90;9.80
429;DHT22;201;48.758;9.290;2023-11-21T03:35:13;8.00;9.70
429;DHT22;201;48.758;9.290;2023-11-21T03:37:38;8.00;9.60
429;DHT22;201;48.758;9.290;2023-11-21T03:40:07;8.00;9.10
429;DHT22;201;48.758;9.290;2023-11-21T03:42:34;8.10;9.00
429;DHT22;201;48.758;9.290;2023-11-21T03:44:59;8.00;8.90
429;DHT22;201;48.758;9.290;2023-11-21T03:47:27;8.00;8.90
429;DHT22;201;48.758;9.290;2023-11-21T03:49:53;8.10;9.00
429;DHT22;201;48.758;9.290;2023-11-21T03:52:18;8.00;8.90
429;DHT22;201;48.758;9.290;2023-11-21T03:54:44;8.10;9.00
429;DHT22;201;48.758;9.290;2023-11-21T03:57:10;8.10;9.00
429;DHT22;201;48.758;9.290;2023-11-21T03:59:35;8.10;9.00
429;DHT22;201;48.758;9.290;2023-11-21T04:02:01;8.00;9.50
429;DHT22;201;48.758;9.290;2023-11-21T04:04:26;7.90;8.80
429;DHT22;201;48.758;9.290;2023-11-21T04:06:52;7.90;8.80
429;DHT22;201;48.758;9.290;2023-11-21T04:09:17;7.90;8.80
429;DHT22;201;48.758;9.290;2023-11-21T04:11:43;7.90;8.80
429;DHT22;201;48.758;9.290;2023-11-21T04:14:10;8.00;9.60
429;DHT22;201;48.758;9.290;2023-11-21T04:16:36;8.00;9.50
429;DHT22;201;48.758;9.290;2023-11-21T04:19:01;7.90;8.90
429;DHT22;201;48.758;9.290;2023-11-21T04:21:27;7.90;8.80
429;DHT22;201;48.758;9.290;2023-11-21T04:23:52;7.90;8.80
429;DHT22;201;48.758;9.290;2023-11-21T04:26:18;7.80;8.80
429;DHT22;201;48.758;9.290;2023-11-21T04:28:43;7.70;8.70
429;DHT22;201;48.758;9.290;2023-11-21T04:31:10;7.70;9.60
429;DHT22;201;48.758;9.290;2023-11-21T04:33:35;7.60;10.10
429;DHT22;201;48.758;9.290;2023-11-21T04:36:01;7.60;10.80
429;DHT22;201;48.758;9.290;2023-11-21T04:38:26;7.50;11.20
429;DHT22;201;48.758;9.290;2023-11-21T04:40:52;7.50;11.70
429;DHT22;201;48.758;9.290;2023-11-21T04:43:17;7.50;12.20
429;DHT22;201;48.758;9.290;2023-11-21T04:45:43;7.50;12.40
429;DHT22;201;48.758;9.290;2023-11-21T04:48:08;7.60;13.00
429;DHT22;201;48.758;9.290;2023-11-21T04:50:34;7.60;13.00
429;DHT22;201;48.758;9.290;2023-11-21T04:53:00;7.70;13.00
429;DHT22;201;48.758;9.290;2023-11-21T04:55:25;7.70;13.00
429;DHT22;201;48.758;9.290;2023-11-21T04:57:53;7.60;12.50
429;DHT22;201;48.758;9.290;2023-11-21T05:00:19;7.50;12.20
429;DHT22;201;48.758;9.290;2023-11-21T05:02:46;7.50;12.00
429;DHT22;201;48.758;9.290;2023-11-21T05:05:12;7.40;12.00
429;DHT22;201;48.758;9.290;2023-11-21T05:07:41;7.40;11.90
429;DHT22;201;48.758;9.290;2023-11-21T05:10:08;7.30;11.90
429;DHT22;201;48.758;9.290;2023-11-21T05:12:37;7.20;12.10
429;DHT22;201;48.758;9.290;2023-11-21T05:15:07;7.20;12.20
429;DHT22;201;48.758;9.290;2023-11-21T05:17:37;7.20;12.70
429;DHT22;201;48.758;9.290;2023-11-21T05:20:04;7.30;12.90
429;DHT22;201;48.758;9.290;2023-11-21T05:22:34;7.30;13.20
429;DHT22;201;48.758;9.290;2023-11-21T05:25:00;7.40;13.30
429;DHT22;201;48.758;9.290;2023-11-21T05:27:25;7.50;13.40
429;DHT22;201;48.758;9.290;2023-11-21T05:29:51;7.50;13.40
429;DHT22;201;48.758;9.290;2023-11-21T05:32:16;7.60;13.30
429;DHT22;201;48.758;9.290;2023-11-21T05:34:43;7.60;13.00
429;DHT22;201;48.758;9.290;2023-11-21T05:37:08;7.60;13.00
429;DHT22;201;48.758;9.290;2023-11-21T05:39:34;7.70;13.00
429;DHT22;201;48.758;9.290;2023-11-21T05:41:59;7.70;12.60
429;DHT22;201;48.758;9.290;2023-11-21T05:44:25;7.60;12.50
429;DHT22;201;48.758;9.290;2023-11-21T05:46:50;7.60;12.40
429;DHT22;201;48.758;9.290;2023-11-21T05:49:16;7.50;12.40
429;DHT22;201;48.758;9.290;2023-11-21T05:51:42;7.50;12.30
429;DHT22;201;48.758;9.290;2023-11-21T05:54:07;7.50;12.40
429;DHT22;201;48.758;9.290;2023-11-21T05:56:33;7.60;12.60
429;DHT22;201;48.758;9.290;2023-11-21T05:58:59;7.60;12.70
429;DHT22;201;48.758;9.290;2023-11-21T06:01:25;7.60;12.70
429;DHT22;201;48.758;9.290;2023-11-21T06:03:53;7.70;12.70
429;DHT22;201;48.758;9.290;2023-11-21T06:06:19;7.70;12.50
429;DHT22;201;48.758;9.290;2023-11-21T06:08:45;7.60;12.20
429;DHT22;201;48.758;9.290;2023-11-21T06:11:10;7.60;12.40
429;DHT22;201;48.758;9.290;2023-11-21T06:13:37;7.60;12.60
429;DHT22;201;48.758;9.290;2023-11-21T06:16:03;7.60;13.30
429;DHT22;201;48.758;9.290;2023-11-21T06:18:30;7.60;12.70
429;DHT22;201;48.758;9.290;2023-11-21T06:20:55;7.60;12.60
429;DHT22;201;48.758;9.290;2023-11-21T06:23:20;7.60;12.50
429;DHT22;201;48.758;9.290;2023-11-21T06:25:46;7.70;12.50
429;DHT22;201;48.758;9.290;2023-11-21T06:28:11;7.70;12.40
429;DHT22;201;48.758;9.290;2023-11-21T06:30:37;7.60;12.30
429;DHT22;201;48.758;9.290;2023-11-21T06:33:03;7.70;12.40
429;DHT22;201;48.758;9.290;2023-11-21T06:35:28;7.60;12.40
429;DHT22;201;48.758;9.290;2023-11-21T06:37:55;7.60;12.20
429;DHT22;201;48.758;9.290;2023-11-21T06:40:21;7.60;12.30
429;DHT22;201;48.758;9.290;2023-11-21T06:42:47;7.70;12.40
429;DHT22;201;48.758;9.290;2023-11-21T06:45:12;7.60;12.20
429;DHT22;201;48.758;9.290;2023-11-21T06:47:38;7.60;12.20
429;DHT22;201;48.758;9.290;2023-11-21T06:50:05;7.60;12.30
429;DHT22;201;48.758;9.290;2023-11-21T06:52:32;7.60;12.30
429;DHT22;201;48.758;9.290;2023-11-21T06:54:57;7.60;12.50
429;DHT22;201;48.758;9.290;2023-11-21T06:57:23;7.60;12.50
429;DHT22;201;48.758;9.290;2023-11-21T06:59:49;7.60;12.50
429;DHT22;201;48.758;9.290;2023-11-21T07:02:16;7.60;12.50
429;DHT22;201;48.758;9.290;2023-11-21T07:04:44;7.50;12.20
429;DHT22;201;48.758;9.290;2023-11-21T07:07:10;7.60;12.40
429;DHT22;201;48.758;9.290;2023-11-21T07:09:36;7.60;12.50
429;DHT22;201;48.758;9.290;2023-11-21T07:12:01;7.60;12.20
429;DHT22;201;48.758;9.290;2023-11-21T07:14:29;7.60;12.10
429;DHT22;201;48.758;9.290;2023-11-21T07:16:54;7.60;12.10
429;DHT22;201;48.758;9.290;2023-11-21T07:19:20;7.60;12.20
429;DHT22;201;48.758;9.290;2023-11-21T07:21:47;7.60;12.20
429;DHT22;201;48.758;9.290;2023-11-21T07:24:15;7.60;12.30
429;DHT22;201;48.758;9.290;2023-11-21T07:26:41;7.70;12.40
429;DHT22;201;48.758;9.290;2023-11-21T07:29:07;7.70;12.40
429;DHT22;201;48.758;9.290;2023-11-21T07:31:32;7.80;12.60
429;DHT22;201;48.758;9.290;2023-11-21T07:34:00;7.90;12.30
429;DHT22;201;48.758;9.290;2023-11-21T07:36:26;7.90;12.00
429;DHT22;201;48.758;9.290;2023-11-21T07:38:51;8.00;12.10
429;DHT22;201;48.758;9.290;2023-11-21T07:41:18;8.10;12.00
429;DHT22;201;48.758;9.290;2023-11-21T07:43:44;8.10;11.50
429;DHT22;201;48.758;9.290;2023-11-21T07:46:10;8.10;11.40
429;DHT22;201;48.758;9.290;2023-11-21T07:48:38;8.20;11.30
429;DHT22;201;48.758;9.290;2023-11-21T07:51:04;8.20;11.00
429;DHT22;201;48.758;9.290;2023-11-21T07:53:29;8.20;10.50
429;DHT22;201;48.758;9.290;2023-11-21T07:55:56;8.20;10.20
429;DHT22;201;48.758;9.290;2023-11-21T07:58:21;8.20;10.10
429;DHT22;201;48.758;9.290;2023-11-21T08:00:47;8.20;10.00
429;DHT22;201;48.758;9.290;2023-11-21T08:03:15;8.30;10.00
429;DHT22;201;48.758;9.290;2023-11-21T08:05:41;8.30;9.90
429;DHT22;201;48.758;9.290;2023-11-21T08:08:07;8.30;9.60
429;DHT22;201;48.758;9.290;2023-11-21T08:10:33;8.40;9.60
429;DHT22;201;48.758;9.290;2023-11-21T08:12:58;8.50;9.30
429;DHT22;201;48.758;9.290;2023-11-21T08:15:24;8.50;9.30
429;DHT22;201;48.758;9.290;2023-11-21T08:17:49;8.60;9.40
429;DHT22;201;48.758;9.290;2023-11-21T08:20:15;8.60;9.30
429;DHT22;201;48.758;9.290;2023-11-21T08:22:42;8.70;9.40
429;DHT22;201;48.758;9.290;2023-11-21T08:25:08;8.80;9.50
429;DHT22;201;48.758;9.290;2023-11-21T08:27:43;8.80;9.50
429;DHT22;201;48.758;9.290;2023-11-21T08:30:09;8.60;9.00
429;DHT22;201;48.758;9.290;2023-11-21T08:32:35;8.60;9.40
429;DHT22;201;48.758;9.290;2023-11-21T08:35:00;8.70;9.40
429;DHT22;201;48.758;9.290;2023-11-21T08:37:26;8.60;9.30
429;DHT22;201;48.758;9.290;2023-11-21T08:39:52;8.70;9.40
429;DHT22;201;48.758;9.290;2023-11-21T08:42:18;8.70;9.40
429;DHT22;201;48.758;9.290;2023-11-21T08:44:44;8.80;9.20
429;DHT22;201;48.758;9.290;2023-11-21T08:47:09;8.70;8.80
429;DHT22;201;48.758;9.290;2023-11-21T08:49:35;8.80;9.10
429;DHT22;201;48.758;9.290;2023-11-21T08:52:00;8.80;8.90
429;DHT22;201;48.758;9.290;2023-11-21T08:54:26;8.80;9.30
429;DHT22;201;48.758;9.290;2023-11-21T08:56:52;9.00;8.90
429;DHT22;201;48.758;9.290;2023-11-21T08:59:18;9.20;8.60
429;DHT22;201;48.758;9.290;2023-11-21T09:01:45;9.40;8.30
429;DHT22;201;48.758;9.290;2023-11-21T09:04:12;9.50;7.70
429;DHT22;201;48.758;9.290;2023-11-21T09:06:38;9.50;6.80
429;DHT22;201;48.758;9.290;2023-11-21T09:09:03;9.60;6.40
429;DHT22;201;48.758;9.290;2023-11-21T09:11:31;9.60;5.90
429;DHT22;201;48.758;9.290;2023-11-21T09:13:59;9.60;5.60
429;DHT22;201;48.758;9.290;2023-11-21T09:16:25;9.60;5.20
429;DHT22;201;48.758;9.290;2023-11-21T09:18:50;9.60;5.20
429;DHT22;201;48.758;9.290;2023-11-21T09:21:15;9.70;5.20
429;DHT22;201;48.758;9.290;2023-11-21T09:23:46;9.80;5.10
429;DHT22;201;48.758;9.290;2023-11-21T09:26:12;9.90;4.90
429;DHT22;201;48.758;9.290;2023-11-21T09:28:37;10.00;3.80
429;DHT22;201;48.758;9.290;2023-11-21T09:31:04;10.00;2.80
429;DHT22;201;48.758;9.290;2023-11-21T09:33:30;10.10;3.10
429;DHT22;201;48.758;9.290;2023-11-21T09:35:56;10.20;2.50
429;DHT22;201;48.758;9.290;2023-11-21T09:38:22;10.30;2.20
429;DHT22;201;48.758;9.290;2023-11-21T09:40:47;10.40;1.00
429;DHT22;201;48.758;9.290;2023-11-21T09:43:17;10.60;1.20
429;DHT22;201;48.758;9.290;2023-11-21T09:45:46;10.80;1.00
429;DHT22;201;48.758;9.290;2023-11-21T09:48:14;11.20;1.00
429;DHT22;201;48.758;9.290;2023-11-21T09:50:42;11.50;1.00
429;DHT22;201;48.758;9.290;2023-11-21T09:53:17;11.50;1.00
429;DHT22;201;48.758;9.290;2023-11-21T09:55:44;11.50;1.00
429;DHT22;201;48.758;9.290;2023-11-21T09:58:10;11.40;1.00
429;DHT22;201;48.758;9.290;2023-11-21T10:00:45;11.30;1.00
429;DHT22;201;48.758;9.290;2023-11-21T10:03:12;11.10;1.00
429;DHT22;201;48.758;9.290;2023-11-21T10:05:38;10.90;1.00
429;DHT22;201;48.758;9.290;2023-11-21T10:08:10;11.00;1.00
429;DHT22;201;48.758;9.290;2023-11-21T10:10:36;11.00;1.00
429;DHT22;201;48.758;9.290;2023-11-21T10:13:04;11.10;1.00
429;DHT22;201;48.758;9.290;2023-11-21T10:15:34;11.10;1.00
429;DHT22;201;48.758;9.290;2023-11-21T10:18:03;10.90;1.00
429;DHT22;201;48.758;9.290;2023-11-21T10:20:30;10.90;1.00
429;DHT22;201;48.758;9.290;2023-11-21T10:22:56;11.10;1.00
429;DHT22;201;48.758;9.290;2023-11-21T10:25:22;11.00;1.00
429;DHT22;201;48.758;9.290;2023-11-21T10:27:49;11.00;1.00
429;DHT22;201;48.758;9.290;2023-11-21T10:30:17;11.10;1.00
429;DHT22;201;48.758;9.290;2023-11-21T10:32:43;11.10;1.00
429;DHT22;201;48.758;9.290;2023-11-21T10:35:10;11.10;1.00
429;DHT22;201;48.758;9.290;2023-11-21T10:37:37;11.00;1.00
429;DHT22;201;48.758;9.290;2023-11-21T10:40:09;10.90;1.00
429;DHT22;201;48.758;9.290;2023-11-21T10:42:38;11.00;1.00
429;DHT22;201;48.758;9.290;2023-11-21T10:45:07;10.90;1.00
429;DHT22;201;48.758;9.290;2023-11-21T10:47:39;10.90;1.00
429;DHT22;201;48.758;9.290;2023-11-21T10:50:05;10.70;1.00
429;DHT22;201;48.758;9.290;2023-11-21T10:52:31;10.50;1.00
429;DHT22;201;48.758;9.290;2023-11-21T10:54:56;10.40;1.00
429;DHT22;201;48.758;9.290;2023-11-21T10:57:25;10.30;1.00
429;DHT22;201;48.758;9.290;2023-11-21T10:59:54;10.20;1.00
429;DHT22;201;48.758;9.290;2023-11-21T11:02:24;10.20;2.00
429;DHT22;201;48.758;9.290;2023-11-21T11:04:53;10.00;2.40
429;DHT22;201;48.758;9.290;2023-11-21T11:07:21;9.90;4.20
429;DHT22;201;48.758;9.290;2023-11-21T11:09:48;9.70;4.60
429;DHT22;201;48.758;9.290;2023-11-21T11:12:14;9.60;5.70
429;DHT22;201;48.758;9.290;2023-11-21T11:14:40;9.50;6.00
429;DHT22;201;48.758;9.290;2023-11-21T11:17:07;9.30;6.90
429;DHT22;201;48.758;9.290;2023-11-21T11:19:34;9.10;7.70
429;DHT22;201;48.758;9.290;2023-11-21T11:24:50;9.10;9.70
429;DHT22;201;48.758;9.290;2023-11-21T11:38:22;9.30;10.60
429;DHT22;201;48.758;9.290;2023-11-21T11:40:53;9.20;9.80
429;DHT22;201;48.758;9.290;2023-11-21T11:43:26;9.30;9.80
429;DHT22;201;48.758;9.290;2023-11-21T11:45:55;9.40;9.90
429;DHT22;201;48.758;9.290;2023-11-21T11:48:22;9.40;9.90
429;DHT22;201;48.758;9.290;2023-11-21T11:51:04;9.50;9.40
429;DHT22;201;48.758;9.290;2023-11-21T11:53:36;9.60;9.80
429;DHT22;201;48.758;9.290;2023-11-21T11:58:58;9.80;8.50
429;DHT22;201;48.758;9.290;2023-11-21T12:01:27;9.90;8.20
429;DHT22;201;48.758;9.290;2023-11-21T12:06:41;10.00;6.40
429;DHT22;201;48.758;9.290;2023-11-21T12:09:06;10.10;6.40
429;DHT22;201;48.758;9.290;2023-11-21T12:11:33;10.30;6.20
429;DHT22;201;48.758;9.290;2023-11-21T12:14:01;10.30;5.40
429;DHT22;201;48.758;9.290;2023-11-21T12:16:32;10.40;4.90
429;DHT22;201;48.758;9.290;2023-11-21T12:18:58;10.40;4.50
429;DHT22;201;48.758;9.290;2023-11-21T12:21:23;10.30;4.60
429;DHT22;201;48.758;9.290;2023-11-21T12:23:49;10.00;4.90
429;DHT22;201;48.758;9.290;2023-11-21T12:26:16;9.70;5.90
429;DHT22;201;48.758;9.290;2023-11-21T12:28:41;9.60;7.00
429;DHT22;201;48.758;9.290;2023-11-21T12:31:07;9.60;8.10
429;DHT22;201;48.758;9.290;2023-11-21T12:33:35;9.60;8.30
429;DHT22;201;48.758;9.290;2023-11-21T12:36:01;9.60;8.20
429;DHT22;201;48.758;9.290;2023-11-21T12:38:34;9.50;8.20
429;DHT22;201;48.758;9.290;2023-11-21T12:41:00;9.50;8.00
429;DHT22;201;48.758;9.290;2023-11-21T12:43:26;9.50;8.30
429;DHT22;201;48.758;9.290;2023-11-21T12:46:10;9.60;8.30
429;DHT22;201;48.758;9.290;2023-11-21T12:48:41;9.70;8.10
429;DHT22;201;48.758;9.290;2023-11-21T12:51:10;9.60;7.90
429;DHT22;201;48.758;9.290;2023-11-21T12:53:37;9.60;8.30
429;DHT22;201;48.758;9.290;2023-11-21T12:56:07;9.60;8.00
429;DHT22;201;48.758;9.290;2023-11-21T12:58:35;9.60;8.20
429;DHT22;201;48.758;9.290;2023-11-21T13:01:01;9.60;8.10
429;DHT22;201;48.758;9.290;2023-11-21T13:03:29;9.60;8.60
429;DHT22;201;48.758;9.290;2023-11-21T13:05:56;9.70;8.50
429;DHT22;201;48.758;9.290;2023-11-21T13:08:23;9.70;8.10
429;DHT22;201;48.758;9.290;2023-11-21T13:10:54;9.80;7.90
429;DHT22;201;48.758;9.290;2023-11-21T13:13:21;9.70;7.30
429;DHT22;201;48.758;9.290;2023-11-21T13:15:51;9.80;7.30
429;DHT22;201;48.758;9.290;2023-11-21T13:18:18;9.80;7.00
429;DHT22;201;48.758;9.290;2023-11-21T13:20:44;9.70;7.10
429;DHT22;201;48.758;9.290;2023-11-21T13:23:10;9.70;7.30
429;DHT22;201;48.758;9.290;2023-11-21T13:25:42;9.70;7.10
429;DHT22;201;48.758;9.290;2023-11-21T13:28:08;9.80;6.40
429;DHT22;201;48.758;9.290;2023-11-21T13:30:35;10.00;5.70
429;DHT22;201;48.758;9.290;2023-11-21T13:33:03;10.20;5.30
429;DHT22;201;48.758;9.290;2023-11-21T13:38:21;10.20;3.90
429;DHT22;201;48.758;9.290;2023-11-21T13:40:51;10.00;4.10
429;DHT22;201;48.758;9.290;2023-11-21T13:43:24;9.90;4.70
429;DHT22;201;48.758;9.290;2023-11-21T13:45:52;9.70;5.70
429;DHT22;201;48.758;9.290;2023-11-21T13:48:25;9.50;7.10
429;DHT22;201;48.758;9.290;2023-11-21T13:50:57;9.30;9.60
429;DHT22;201;48.758;9.290;2023-11-21T13:53:49;9.20;9.80
429;DHT22;201;48.758;9.290;2023-11-21T13:56:18;9.10;9.70
429;DHT22;201;48.758;9.290;2023-11-21T13:58:52;9.00;10.00
429;DHT22;201;48.758;9.290;2023-11-21T14:01:22;8.90;10.20
429;DHT22;201;48.758;9.290;2023-11-21T14:06:27;8.60;11.30
429;DHT22;201;48.758;9.290;2023-11-21T14:09:00;8.50;12.30
429;DHT22;201;48.758;9.290;2023-11-21T14:11:31;8.60;13.00
429;DHT22;201;48.758;9.290;2023-11-21T14:13:56;8.60;13.10
429;DHT22;201;48.758;9.290;2023-11-21T14:16:24;8.70;13.70
429;DHT22;201;48.758;9.290;2023-11-21T14:18:50;8.80;13.60
429;DHT22;201;48.758;9.290;2023-11-21T14:21:24;8.80;13.40
429;DHT22;201;48.758;9.290;2023-11-21T14:23:49;8.70;13.70
429;DHT22;201;48.758;9.290;2023-11-21T14:26:15;8.70;14.00
429;DHT22;201;48.758;9.290;2023-11-21T14:28:42;8.60;14.30
429;DHT22;201;48.758;9.290;2023-11-21T14:31:08;8.60;14.60
429;DHT22;201;48.758;9.290;2023-11-21T14:33:38;8.60;14.50
429;DHT22;201;48.758;9.290;2023-11-21T14:36:05;8.50;13.80
429;DHT22;201;48.758;9.290;2023-11-21T14:38:33;8.50;13.60
429;DHT22;201;48.758;9.290;2023-11-21T14:40:58;8.60;13.60
429;DHT22;201;48.758;9.290;2023-11-21T14:43:24;8.40;13.10
429;DHT22;201;48.758;9.290;2023-11-21T14:45:51;8.40;13.10
429;DHT22;201;48.758;9.290;2023-11-21T14:48:16;8.40;12.90
429;DHT22;201;48.758;9.290;2023-11-21T14:50:51;8.40;13.00
429;DHT22;201;48.758;9.290;2023-11-21T14:53:49;8.40;13.10
429;DHT22;201;48.758;9.290;2023-11-21T14:56:21;8.30;12.90
429;DHT22;201;48.758;9.290;2023-11-21T14:58:58;8.20;13.10
429;DHT22;201;48.758;9.290;2023-11-21T15:01:38;8.20;13.40
429;DHT22;201;48.758;9.290;2023-11-21T15:04:18;8.20;13.50
429;DHT22;201;48.758;9.290;2023-11-21T15:07:05;8.20;13.80
429;DHT22;201;48.758;9.290;2023-11-21T15:09:31;8.20;13.80
429;DHT22;201;48.758;9.290;2023-11-21T15:11:57;8.10;14.00
429;DHT22;201;48.758;9.290;2023-11-21T15:14:29;8.10;14.10
429;DHT22;201;48.758;9.290;2023-11-21T15:16:58;8.20;14.30
429;DHT22;201;48.758;9.290;2023-11-21T15:19:26;8.20;14.30
429;DHT22;201;48.758;9.290;2023-11-21T15:21:53;8.10;14.40
429;DHT22;201;48.758;9.290;2023-11-21T15:24:18;8.20;14.70
429;DHT22;201;48.758;9.290;2023-11-21T15:26:44;8.20;14.60
429;DHT22;201;48.758;9.290;2023-11-21T15:29:10;8.20;14.60
429;DHT22;201;48.758;9.290;2023-11-21T15:31:36;8.20;14.50
429;DHT22;201;48.758;9.290;2023-11-21T15:34:03;8.20;14.50
429;DHT22;201;48.758;9.290;2023-11-21T15:36:30;8.20;14.40
429;DHT22;201;48.758;9.290;2023-11-21T15:38:56;8.20;14.50
429;DHT22;201;48.758;9.290;2023-11-21T15:41:21;8.20;14.60
429;DHT22;201;48.758;9.290;2023-11-21T15:43:47;8.20;14.00
429;DHT22;201;48.758;9.290;2023-11-21T15:46:15;8.10;13.70
429;DHT22;201;48.758;9.290;2023-11-21T15:48:40;8.10;13.70
429;DHT22;201;48.758;9.290;2023-11-21T15:51:15;8.10;13.30
429;DHT22;201;48.758;9.290;2023-11-21T15:53:41;8.10;12.90
429;DHT22;201;48.758;9.290;2023-11-21T15:56:07;8.10;13.00
429;DHT22;201;48.758;9.290;2023-11-21T15:58:37;8.10;12.80
429;DHT22;201;48.758;9.290;2023-11-21T16:01:02;8.10;12.40
429;DHT22;201;48.758;9.290;2023-11-21T16:03:28;8.00;12.10
429;DHT22;201;48.758;9.290;2023-11-21T16:05:55;8.10;12.30
429;DHT22;201;48.758;9.290;2023-11-21T16:08:21;8.00;12.30
429;DHT22;201;48.758;9.290;2023-11-21T16:10:46;8.10;12.50
429;DHT22;201;48.758;9.290;2023-11-21T16:13:12;8.10;12.30
429;DHT22;201;48.758;9.290;2023-11-21T16:15:38;8.10;12.40
429;DHT22;201;48.758;9.290;2023-11-21T16:18:04;8.10;12.60
429;DHT22;201;48.758;9.290;2023-11-21T16:20:30;8.10;12.50
429;DHT22;201;48.758;9.290;2023-11-21T16:22:55;8.10;12.80
429;DHT22;201;48.758;9.290;2023-11-21T16:25:21;8.10;12.60
429;DHT22;201;48.758;9.290;2023-11-21T16:27:46;8.10;12.60
429;DHT22;201;48.758;9.290;2023-11-21T16:30:12;8.10;12.60
429;DHT22;201;48.758;9.290;2023-11-21T16:32:37;8.10;12.40
429;DHT22;201;48.758;9.290;2023-11-21T16:35:03;8.20;12.60
429;DHT22;201;48.758;9.290;2023-11-21T16:37:29;8.20;12.50
429;DHT22;201;48.758;9.290;2023-11-21T16:39:55;8.20;12.30
429;DHT22;201;48.758;9.290;2023-11-21T16:42:20;8.10;12.20
429;DHT22;201;48.758;9.290;2023-11-21T16:44:48;8.10;12.40
429;DHT22;201;48.758;9.290;2023-11-21T16:47:14;8.00;12.40
429;DHT22;201;48.758;9.290;2023-11-21T16:49:40;8.00;12.50
429;DHT22;201;48.758;9.290;2023-11-21T16:52:08;7.90;12.60
429;DHT22;201;48.758;9.290;2023-11-21T16:54:33;7.90;12.80
429;DHT22;201;48.758;9.290;2023-11-21T16:56:59;7.90;12.90
429;DHT22;201;48.758;9.290;2023-11-21T16:59:24;7.90;12.90
429;DHT22;201;48.758;9.290;2023-11-21T17:01:50;7.90;13.10
429;DHT22;201;48.758;9.290;2023-11-21T17:04:16;7.90;13.20
429;DHT22;201;48.758;9.290;2023-11-21T17:06:44;7.70;13.00
429;DHT22;201;48.758;9.290;2023-11-21T17:09:10;7.70;13.00
429;DHT22;201;48.758;9.290;2023-11-21T17:11:38;7.60;13.00
429;DHT22;201;48.758;9.290;2023-11-21T17:14:07;7.60;13.80
429;DHT22;201;48.758;9.290;2023-11-21T17:16:34;7.50;13.40
429;DHT22;201;48.758;9.290;2023-11-21T17:19:01;7.40;13.60